createdAt,value
2019-03-28T00:00:43.783Z,9.47
2019-03-28T00:03:12.212Z,9.03
2019-03-28T00:05:40.661Z,9.40
2019-03-28T00:08:12.316Z,9.13
2019-03-28T00:10:39.284Z,9.40
2019-03-28T00:13:07.712Z,9.43
2019-03-28T00:15:36.236Z,9.20
2019-03-28T00:18:04.664Z,9.13
2019-03-28T00:20:33.119Z,9.57
2019-03-28T00:23:03.208Z,9.70
2019-03-28T00:25:31.646Z,9.47
2019-03-28T00:28:00.091Z,10.00
2019-03-28T00:30:28.548Z,9.20
2019-03-28T00:32:56.976Z,9.70
2019-03-28T00:35:26.199Z,10.13
2019-03-28T00:37:54.751Z,10.30
2019-03-28T00:40:23.209Z,10.03
2019-03-28T00:42:51.682Z,10.33
2019-03-28T00:45:20.195Z,10.30
2019-03-28T00:47:48.627Z,10.13
2019-03-28T00:50:17.250Z,10.07
2019-03-28T00:52:45.689Z,10.40
2019-03-28T00:55:14.134Z,9.57
2019-03-28T00:57:42.566Z,10.00
2019-03-28T01:00:12.371Z,10.30
2019-03-28T01:02:40.799Z,9.93
2019-03-28T01:05:09.331Z,9.20
2019-03-28T01:07:37.766Z,9.50
2019-03-28T01:10:06.762Z,9.30
2019-03-28T01:12:35.207Z,8.77
2019-03-28T01:15:04.915Z,9.07
2019-03-28T01:17:33.340Z,8.70
2019-03-28T01:20:01.807Z,8.67
2019-03-28T01:22:31.054Z,8.83
2019-03-28T01:24:59.568Z,9.13
2019-03-28T01:27:27.998Z,9.17
2019-03-28T01:29:57.227Z,9.03
2019-03-28T01:32:25.761Z,8.67
2019-03-28T01:34:54.205Z,8.90
2019-03-28T01:37:22.632Z,8.60
2019-03-28T01:39:51.102Z,8.63
2019-03-28T01:42:19.518Z,9.50
2019-03-28T01:44:47.965Z,9.43
2019-03-28T01:47:16.405Z,9.67
2019-03-28T01:49:44.865Z,9.57
2019-03-28T01:52:13.342Z,10.27
2019-03-28T01:54:41.800Z,9.77
2019-03-28T01:57:11.483Z,9.97
2019-03-28T01:59:40.407Z,10.37
2019-03-28T02:02:08.836Z,9.93
2019-03-28T02:04:37.294Z,10.20
2019-03-28T02:07:05.751Z,9.53
2019-03-28T02:09:34.196Z,9.93
2019-03-28T02:12:02.631Z,9.27
2019-03-28T02:14:31.097Z,10.13
2019-03-28T02:16:59.538Z,9.30
2019-03-28T02:19:27.989Z,9.20
2019-03-28T02:21:56.432Z,9.73
2019-03-28T02:24:24.886Z,10.40
2019-03-28T02:26:53.318Z,9.87
2019-03-28T02:29:21.783Z,10.53
2019-03-28T02:31:50.241Z,10.63
2019-03-28T02:34:18.681Z,10.63
2019-03-28T02:36:47.154Z,10.83
2019-03-28T02:39:15.681Z,10.37
2019-03-28T02:41:44.126Z,11.50
2019-03-28T02:44:12.595Z,12.30
2019-03-28T02:46:41.053Z,11.47
2019-03-28T02:49:09.491Z,11.57
2019-03-28T02:51:37.941Z,11.83
2019-03-28T02:54:06.402Z,11.57
2019-03-28T02:56:34.871Z,11.97
2019-03-28T02:59:03.309Z,10.90
2019-03-28T03:01:31.810Z,11.10
2019-03-28T03:04:00.248Z,11.07
2019-03-28T03:06:28.691Z,10.87
2019-03-28T03:08:57.130Z,10.90
2019-03-28T03:11:25.600Z,10.87
2019-03-28T03:13:54.099Z,11.67
2019-03-28T03:16:22.840Z,11.47
2019-03-28T03:18:51.544Z,11.40
2019-03-28T03:21:19.991Z,10.60
2019-03-28T03:23:48.438Z,12.13
2019-03-28T03:26:16.907Z,11.27
2019-03-28T03:28:45.403Z,11.43
2019-03-28T03:31:20.312Z,11.03
2019-03-28T03:33:44.018Z,11.50
2019-03-28T03:36:12.478Z,11.80
2019-03-28T03:38:40.917Z,11.40
2019-03-28T03:41:09.438Z,11.67
2019-03-28T03:43:37.884Z,10.83
2019-03-28T03:46:06.332Z,11.50
2019-03-28T03:48:34.842Z,11.17
2019-03-28T03:51:03.300Z,12.13
2019-03-28T03:53:31.737Z,11.90
2019-03-28T03:56:00.212Z,12.03
2019-03-28T03:58:28.658Z,11.47
2019-03-28T04:00:57.098Z,11.40
2019-03-28T04:03:25.569Z,11.70
2019-03-28T04:05:54.006Z,12.40
2019-03-28T04:08:22.462Z,10.87
2019-03-28T04:10:50.898Z,12.03
2019-03-28T04:13:19.343Z,12.10
2019-03-28T04:15:47.803Z,11.70
2019-03-28T04:18:16.265Z,11.50
2019-03-28T04:20:44.772Z,11.97
2019-03-28T04:23:13.224Z,11.47
2019-03-28T04:25:41.655Z,11.37
2019-03-28T04:28:10.114Z,11.03
2019-03-28T04:30:38.551Z,11.30
2019-03-28T04:33:07.004Z,11.47
2019-03-28T04:35:35.515Z,11.57
2019-03-28T04:38:03.991Z,10.87
2019-03-28T04:40:32.435Z,11.53
2019-03-28T04:43:00.903Z,11.47
2019-03-28T04:45:29.426Z,11.87
2019-03-28T04:47:57.897Z,11.70
2019-03-28T04:50:26.339Z,12.07
2019-03-28T04:52:54.798Z,11.87
2019-03-28T04:55:23.238Z,11.63
2019-03-28T04:57:51.675Z,11.50
2019-03-28T05:00:20.205Z,11.23
2019-03-28T05:02:48.634Z,11.27
2019-03-28T05:05:17.114Z,12.40
2019-03-28T05:07:45.611Z,11.20
2019-03-28T05:10:14.249Z,11.97
2019-03-28T05:12:42.694Z,11.60
2019-03-28T05:15:12.586Z,10.83
2019-03-28T05:17:41.029Z,11.27
2019-03-28T05:20:11.827Z,11.07
2019-03-28T05:22:39.893Z,11.33
2019-03-28T05:25:08.979Z,11.00
2019-03-28T05:27:37.419Z,11.60
2019-03-28T05:30:09.565Z,10.60
2019-03-28T05:32:38.002Z,11.50
2019-03-28T05:35:07.119Z,10.10
2019-03-28T05:37:36.395Z,10.43
2019-03-28T05:40:08.371Z,11.53
2019-03-28T05:42:36.805Z,10.80
2019-03-28T05:45:06.699Z,11.07
2019-03-28T05:47:35.156Z,10.10
2019-03-28T05:50:04.470Z,9.77
2019-03-28T05:52:32.911Z,9.70
2019-03-28T05:55:01.431Z,9.80
2019-03-28T05:57:29.870Z,10.27
2019-03-28T05:59:58.338Z,9.83
2019-03-28T06:02:26.849Z,9.87
2019-03-28T06:04:55.301Z,9.73
2019-03-28T06:07:23.747Z,11.03
2019-03-28T06:09:52.220Z,10.17
2019-03-28T06:12:20.693Z,9.87
2019-03-28T06:14:49.150Z,9.80
2019-03-28T06:17:17.593Z,9.93
2019-03-28T06:19:46.078Z,10.23
2019-03-28T06:22:14.628Z,9.37
2019-03-28T06:24:43.172Z,10.07
2019-03-28T06:27:11.649Z,10.23
2019-03-28T06:29:40.106Z,10.67
2019-03-28T06:32:08.547Z,10.20
2019-03-28T06:34:37.005Z,10.70
2019-03-28T06:37:06.411Z,11.30
2019-03-28T06:39:36.628Z,11.30
2019-03-28T06:42:05.199Z,11.43
2019-03-28T06:44:33.649Z,11.37
2019-03-28T06:47:02.114Z,10.93
2019-03-28T06:49:30.569Z,12.07
2019-03-28T06:51:59.006Z,10.80
2019-03-28T06:54:27.461Z,11.40
2019-03-28T06:56:55.894Z,11.90
2019-03-28T06:59:36.528Z,11.33
2019-03-28T07:01:54.510Z,10.90
2019-03-28T07:04:22.974Z,10.77
2019-03-28T07:06:51.419Z,10.43
2019-03-28T07:09:19.888Z,10.80
2019-03-28T07:11:48.330Z,11.07
2019-03-28T07:14:16.763Z,10.53
2019-03-28T07:16:45.251Z,10.60
2019-03-28T07:19:13.706Z,10.27
2019-03-28T07:21:42.155Z,10.57
2019-03-28T07:24:10.586Z,9.63
2019-03-28T07:26:39.054Z,11.03
2019-03-28T07:29:07.491Z,11.10
2019-03-28T07:31:35.979Z,11.17
2019-03-28T07:34:04.410Z,10.60
2019-03-28T07:36:32.860Z,10.37
2019-03-28T07:39:01.343Z,10.73
2019-03-28T07:41:29.854Z,11.70
2019-03-28T07:43:58.299Z,12.10
2019-03-28T07:46:26.751Z,13.47
2019-03-28T07:48:55.191Z,14.53
2019-03-28T07:51:23.670Z,16.90
2019-03-28T07:53:52.109Z,17.13
2019-03-28T07:56:20.571Z,16.07
2019-03-28T07:58:49.024Z,15.63
2019-03-28T08:01:18.283Z,14.97
2019-03-28T08:03:46.840Z,14.77
2019-03-28T08:06:15.348Z,13.67
2019-03-28T08:08:44.284Z,13.00
2019-03-28T08:11:12.850Z,12.93
2019-03-28T08:13:41.354Z,10.63
2019-03-28T08:16:09.822Z,11.57
2019-03-28T08:18:38.263Z,11.23
2019-03-28T08:21:06.742Z,10.47
2019-03-28T08:23:35.568Z,10.77
2019-03-28T08:26:04.198Z,10.60
2019-03-28T08:28:32.682Z,10.60
2019-03-28T08:31:01.265Z,10.17
2019-03-28T08:33:29.872Z,10.97
2019-03-28T08:35:58.695Z,10.60
2019-03-28T08:38:27.393Z,10.93
2019-03-28T08:40:55.863Z,10.20
2019-03-28T08:43:24.380Z,10.70
2019-03-28T08:45:52.825Z,8.80
2019-03-28T08:48:21.265Z,9.47
2019-03-28T08:50:49.739Z,8.63
2019-03-28T08:53:18.226Z,9.00
2019-03-28T08:55:46.693Z,9.00
2019-03-28T08:58:15.147Z,9.00
2019-03-28T09:00:51.567Z,8.67
2019-03-28T09:03:13.762Z,8.83
2019-03-28T09:05:42.232Z,9.20
2019-03-28T09:08:10.672Z,8.63
2019-03-28T09:10:39.125Z,9.00
2019-03-28T09:13:07.572Z,7.87
2019-03-28T09:15:43.458Z,7.30
2019-03-28T09:18:06.267Z,7.33
2019-03-28T09:20:34.741Z,8.10
2019-03-28T09:23:03.191Z,6.90
2019-03-28T09:25:31.628Z,7.40
2019-03-28T09:28:00.094Z,8.20
2019-03-28T09:30:47.586Z,6.90
2019-03-28T09:33:06.970Z,6.20
2019-03-28T09:35:35.502Z,6.33
2019-03-28T09:38:04.178Z,6.53
2019-03-28T09:40:32.609Z,6.40
2019-03-28T09:43:01.058Z,6.00
2019-03-28T09:45:30.194Z,6.07
2019-03-28T09:47:58.842Z,5.90
2019-03-28T09:50:27.272Z,6.73
2019-03-28T09:52:55.731Z,6.90
2019-03-28T09:55:24.171Z,7.50
2019-03-28T09:57:52.625Z,6.30
2019-03-28T10:00:21.204Z,7.03
2019-03-28T10:02:49.650Z,7.30
2019-03-28T10:05:18.081Z,6.20
2019-03-28T10:07:46.622Z,6.50
2019-03-28T10:10:15.244Z,6.30
2019-03-28T10:12:44.217Z,5.47
2019-03-28T10:15:12.950Z,6.23
2019-03-28T10:17:42.538Z,6.27
2019-03-28T10:20:11.570Z,6.87
2019-03-28T10:22:40.029Z,6.27
2019-03-28T10:25:12.299Z,6.30
2019-03-28T10:27:39.108Z,6.00
2019-03-28T10:30:09.407Z,6.53
2019-03-28T10:32:37.870Z,7.07
2019-03-28T10:35:07.087Z,6.50
2019-03-28T10:37:35.719Z,6.13
2019-03-28T10:40:06.796Z,5.40
2019-03-28T10:42:35.392Z,5.80
2019-03-28T10:45:05.570Z,5.93
2019-03-28T10:47:34.023Z,6.60
2019-03-28T10:50:04.194Z,6.03
2019-03-28T10:52:32.652Z,6.33
2019-03-28T10:55:01.086Z,7.10
2019-03-28T10:57:30.498Z,7.13
2019-03-28T10:59:59.769Z,6.53
2019-03-28T11:02:28.946Z,6.70
2019-03-28T11:04:57.632Z,6.07
2019-03-28T11:07:26.095Z,6.17
2019-03-28T11:09:54.543Z,7.40
2019-03-28T11:12:23.062Z,6.67
2019-03-28T11:14:51.503Z,6.63
2019-03-28T11:17:19.959Z,7.30
2019-03-28T11:19:48.401Z,6.80
2019-03-28T11:22:16.860Z,6.57
2019-03-28T11:24:46.521Z,6.70
2019-03-28T11:27:15.151Z,6.80
2019-03-28T11:29:43.677Z,6.20
2019-03-28T11:32:12.125Z,5.53
2019-03-28T11:34:40.897Z,5.00
2019-03-28T11:37:14.918Z,4.90
2019-03-28T11:39:39.749Z,5.00
2019-03-28T11:42:08.363Z,5.07
2019-03-28T11:44:36.858Z,5.00
2019-03-28T11:47:05.292Z,5.00
2019-03-28T11:49:33.749Z,5.90
2019-03-28T11:52:02.185Z,6.30
2019-03-28T11:54:30.637Z,4.97
2019-03-28T11:56:59.078Z,5.07
2019-03-28T11:59:27.525Z,4.70
2019-03-28T12:02:02.082Z,4.80
2019-03-28T12:04:26.159Z,4.10
2019-03-28T12:06:54.594Z,4.47
2019-03-28T12:09:23.074Z,5.00
2019-03-28T12:11:52.933Z,4.87
2019-03-28T12:14:21.644Z,4.93
2019-03-28T12:16:50.099Z,4.90
2019-03-28T12:19:18.632Z,5.00
2019-03-28T12:21:47.117Z,4.60
2019-03-28T12:24:15.577Z,4.67
2019-03-28T12:26:44.018Z,4.73
2019-03-28T12:29:12.492Z,4.63
2019-03-28T12:31:40.967Z,4.70
2019-03-28T12:34:09.418Z,4.70
2019-03-28T12:36:37.859Z,4.60
2019-03-28T12:39:06.883Z,4.07
2019-03-28T12:41:35.322Z,4.83
2019-03-28T12:44:03.757Z,4.20
2019-03-28T12:46:32.200Z,4.63
2019-03-28T12:49:00.658Z,4.50
2019-03-28T12:51:29.091Z,5.27
2019-03-28T12:53:57.548Z,5.00
2019-03-28T12:56:26.463Z,4.90
2019-03-28T12:58:55.023Z,5.00
2019-03-28T13:01:24.502Z,5.10
2019-03-28T13:03:53.105Z,4.80
2019-03-28T13:06:21.554Z,5.10
2019-03-28T13:08:50.006Z,5.50
2019-03-28T13:11:19.564Z,5.70
2019-03-28T13:13:48.195Z,5.50
2019-03-28T13:16:16.631Z,5.50
2019-03-28T13:18:45.077Z,5.40
2019-03-28T13:21:14.168Z,5.07
2019-03-28T13:23:42.859Z,5.03
2019-03-28T13:26:11.298Z,5.17
2019-03-28T13:28:39.770Z,4.20
2019-03-28T13:31:08.225Z,4.30
2019-03-28T13:33:36.730Z,4.30
2019-03-28T13:36:05.180Z,4.77
2019-03-28T13:38:33.679Z,4.73
2019-03-28T13:41:02.168Z,5.33
2019-03-28T13:43:30.759Z,6.57
2019-03-28T13:45:59.407Z,6.50
2019-03-28T13:48:27.849Z,6.60
2019-03-28T13:50:56.317Z,6.77
2019-03-28T13:53:38.315Z,6.30
2019-03-28T13:55:55.022Z,6.70
2019-03-28T13:58:23.526Z,6.87
2019-03-28T14:00:54.380Z,5.60
2019-03-28T14:03:22.137Z,5.40
2019-03-28T14:05:50.603Z,5.63
2019-03-28T14:08:19.098Z,4.90
2019-03-28T14:10:47.615Z,5.13
2019-03-28T14:13:16.049Z,5.07
2019-03-28T14:15:44.529Z,5.20
2019-03-28T14:18:12.968Z,5.23
2019-03-28T14:20:41.521Z,5.17
2019-03-28T14:23:10.018Z,5.30
2019-03-28T14:25:38.478Z,5.03
2019-03-28T14:28:06.910Z,4.83
2019-03-28T14:30:35.474Z,4.90
2019-03-28T14:33:11.068Z,4.67
2019-03-28T14:35:34.120Z,4.60
2019-03-28T14:38:02.556Z,4.90
2019-03-28T14:40:31.021Z,4.90
2019-03-28T14:42:59.460Z,4.83
2019-03-28T14:45:27.897Z,4.70
2019-03-28T14:47:56.346Z,4.43
2019-03-28T14:50:35.325Z,4.73
2019-03-28T14:53:04.007Z,4.87
2019-03-28T14:55:33.966Z,4.50
2019-03-28T14:58:03.772Z,5.63
2019-03-28T15:00:47.069Z,5.40
2019-03-28T15:03:25.500Z,6.37
2019-03-28T15:05:46.420Z,6.40
2019-03-28T15:08:14.862Z,7.27
2019-03-28T15:10:43.327Z,8.60
2019-03-28T15:13:11.812Z,7.50
2019-03-28T15:15:40.290Z,8.20
2019-03-28T15:18:08.754Z,7.87
2019-03-28T15:20:37.309Z,7.37
2019-03-28T15:23:05.797Z,6.63
2019-03-28T15:25:34.301Z,6.77
2019-03-28T15:28:02.754Z,6.07
2019-03-28T15:30:31.199Z,5.50
2019-03-28T15:32:59.644Z,5.10
2019-03-28T15:35:28.082Z,5.40
2019-03-28T15:37:56.566Z,5.33
2019-03-28T15:40:25.039Z,4.80
2019-03-28T15:42:53.518Z,5.60
2019-03-28T15:45:21.964Z,5.13
2019-03-28T15:47:52.118Z,5.23
2019-03-28T15:50:20.820Z,5.03
2019-03-28T15:52:49.278Z,4.27
2019-03-28T15:55:17.714Z,3.80
2019-03-28T15:57:46.172Z,3.90
2019-03-28T16:00:15.159Z,3.70
2019-03-28T16:02:43.610Z,3.70
2019-03-28T16:05:12.047Z,4.67
2019-03-28T16:07:40.498Z,4.53
2019-03-28T16:10:10.474Z,4.00
2019-03-28T16:12:38.927Z,4.60
2019-03-28T16:15:08.308Z,4.70
2019-03-28T16:17:36.749Z,4.90
2019-03-28T16:20:06.129Z,5.30
2019-03-28T16:22:34.581Z,5.20
2019-03-28T16:25:03.012Z,5.33
2019-03-28T16:27:31.502Z,5.47
2019-03-28T16:29:59.997Z,5.80
2019-03-28T16:32:28.469Z,5.60
2019-03-28T16:34:56.913Z,5.40
2019-03-28T16:37:25.358Z,5.80
2019-03-28T16:39:53.816Z,4.97
2019-03-28T16:42:22.252Z,5.47
2019-03-28T16:44:50.703Z,5.17
2019-03-28T16:47:19.214Z,4.97
2019-03-28T16:49:47.668Z,5.23
2019-03-28T16:52:16.110Z,4.87
2019-03-28T16:54:44.586Z,4.70
2019-03-28T16:57:13.016Z,4.60
2019-03-28T16:59:41.483Z,4.37
2019-03-28T17:02:09.918Z,4.97
2019-03-28T17:04:38.372Z,4.43
2019-03-28T17:07:07.847Z,5.00
2019-03-28T17:09:39.145Z,4.83
2019-03-28T17:12:07.683Z,4.53
2019-03-28T17:14:36.185Z,4.97
2019-03-28T17:17:05.448Z,4.90
2019-03-28T17:19:33.907Z,4.90
2019-03-28T17:22:02.360Z,4.83
2019-03-28T17:24:30.824Z,4.70
2019-03-28T17:26:59.250Z,4.90
2019-03-28T17:29:27.719Z,5.93
2019-03-28T17:31:56.147Z,5.30
2019-03-28T17:34:34.738Z,5.30
2019-03-28T17:36:54.763Z,5.50
2019-03-28T17:39:23.220Z,5.63
2019-03-28T17:41:51.653Z,5.87
2019-03-28T17:44:20.112Z,5.90
2019-03-28T17:46:48.563Z,5.73
2019-03-28T17:49:17.094Z,5.63
2019-03-28T17:51:45.529Z,6.47
2019-03-28T17:54:13.964Z,6.30
2019-03-28T17:56:42.436Z,6.30
2019-03-28T17:59:10.880Z,5.47
2019-03-28T18:01:39.340Z,5.63
2019-03-28T18:04:07.785Z,6.33
2019-03-28T18:06:36.328Z,5.83
2019-03-28T18:09:06.931Z,6.10
2019-03-28T18:11:35.467Z,6.60
2019-03-28T18:14:04.396Z,7.37
2019-03-28T18:16:33.630Z,6.80
2019-03-28T18:19:02.972Z,6.63
2019-03-28T18:21:31.474Z,6.17
2019-03-28T18:23:59.942Z,6.03
2019-03-28T18:26:28.397Z,6.80
2019-03-28T18:28:56.849Z,7.47
2019-03-28T18:31:25.374Z,6.90
2019-03-28T18:33:53.819Z,7.30
2019-03-28T18:36:22.291Z,7.87
2019-03-28T18:38:52.523Z,9.17
2019-03-28T18:41:20.893Z,8.60
2019-03-28T18:43:49.859Z,9.20
2019-03-28T18:46:18.464Z,9.20
2019-03-28T18:48:46.904Z,12.57
2019-03-28T18:51:15.385Z,11.53
2019-03-28T18:53:43.817Z,10.60
2019-03-28T18:56:12.284Z,8.80
2019-03-28T18:58:40.722Z,8.77
2019-03-28T19:01:09.278Z,9.13
2019-03-28T19:03:37.712Z,9.30
2019-03-28T19:06:06.181Z,12.73
2019-03-28T19:08:34.650Z,11.07
2019-03-28T19:11:03.943Z,9.77
2019-03-28T19:13:32.502Z,9.03
2019-03-28T19:16:01.134Z,9.33
2019-03-28T19:18:29.573Z,10.33
2019-03-28T19:20:58.044Z,10.77
2019-03-28T19:23:26.494Z,9.93
2019-03-28T19:25:54.954Z,10.90
2019-03-28T19:28:29.021Z,9.50
2019-03-28T19:30:53.606Z,7.93
2019-03-28T19:33:22.070Z,8.27
2019-03-28T19:35:51.174Z,8.10
2019-03-28T19:38:19.628Z,7.93
2019-03-28T19:40:48.141Z,5.53
2019-03-28T19:43:20.865Z,5.10
2019-03-28T19:45:46.910Z,5.63
2019-03-28T19:48:15.338Z,5.27
2019-03-28T19:50:43.805Z,16.37
2019-03-28T19:53:12.355Z,8.93
2019-03-28T19:55:40.883Z,6.00
2019-03-28T19:58:09.565Z,6.03
2019-03-28T20:00:38.013Z,6.10
2019-03-28T20:03:06.454Z,5.50
2019-03-28T20:05:46.852Z,5.20
2019-03-28T20:08:15.411Z,4.90
2019-03-28T20:10:35.433Z,4.77
2019-03-28T20:13:05.429Z,4.43
2019-03-28T20:15:34.201Z,4.57
2019-03-28T20:18:02.686Z,4.23
2019-03-28T20:20:31.122Z,4.70
2019-03-28T20:22:59.560Z,4.70
2019-03-28T20:25:27.988Z,4.87
2019-03-28T20:27:56.439Z,4.83
2019-03-28T20:30:25.296Z,4.93
2019-03-28T20:32:53.761Z,5.43
2019-03-28T20:35:22.199Z,5.13
2019-03-28T20:37:50.637Z,5.20
2019-03-28T20:40:19.410Z,5.10
2019-03-28T20:42:47.850Z,5.40
2019-03-28T20:45:16.611Z,5.60
2019-03-28T20:47:45.067Z,5.40
2019-03-28T20:50:14.334Z,6.10
2019-03-28T20:52:42.795Z,6.00
2019-03-28T20:55:11.301Z,6.63
2019-03-28T20:57:40.566Z,6.80
2019-03-28T21:00:09.593Z,6.57
2019-03-28T21:02:38.110Z,6.90
2019-03-28T21:05:07.368Z,7.03
2019-03-28T21:07:35.959Z,6.33
2019-03-28T21:10:05.543Z,6.43
2019-03-28T21:12:33.970Z,6.70
2019-03-28T21:15:02.432Z,7.10
2019-03-28T21:17:32.260Z,6.23
2019-03-28T21:20:01.194Z,6.70
2019-03-28T21:22:29.618Z,5.33
2019-03-28T21:24:58.069Z,5.57
2019-03-28T21:27:26.538Z,5.40
2019-03-28T21:29:55.002Z,4.70
2019-03-28T21:32:23.428Z,6.03
2019-03-28T21:34:51.878Z,5.80
2019-03-28T21:37:20.348Z,5.50
2019-03-28T21:39:48.801Z,5.27
2019-03-28T21:42:17.304Z,6.00
2019-03-28T21:44:45.760Z,7.13
2019-03-28T21:47:14.190Z,7.33
2019-03-28T21:49:42.646Z,8.13
2019-03-28T21:52:11.091Z,8.63
2019-03-28T21:54:39.554Z,8.97
2019-03-28T21:57:08.058Z,9.07
2019-03-28T21:59:36.624Z,9.03
2019-03-28T22:02:05.119Z,9.37
2019-03-28T22:04:34.375Z,9.20
2019-03-28T22:07:03.364Z,7.80
2019-03-28T22:09:31.827Z,8.53
2019-03-28T22:12:00.861Z,8.47
2019-03-28T22:14:29.683Z,7.73
2019-03-28T22:16:58.134Z,6.90
2019-03-28T22:19:26.595Z,7.60
2019-03-28T22:21:55.050Z,7.30
2019-03-28T22:24:23.596Z,7.93
2019-03-28T22:26:52.092Z,7.07
2019-03-28T22:29:20.891Z,7.50
2019-03-28T22:31:49.556Z,6.93
2019-03-28T22:34:18.057Z,7.03
2019-03-28T22:36:56.538Z,7.20
2019-03-28T22:39:16.678Z,7.53
2019-03-28T22:41:45.114Z,7.97
2019-03-28T22:44:14.376Z,8.80
2019-03-28T22:46:42.915Z,10.20
2019-03-28T22:49:11.378Z,10.03
2019-03-28T22:51:39.806Z,10.80
2019-03-28T22:54:08.284Z,10.67
2019-03-28T22:56:36.733Z,11.60
2019-03-28T22:59:05.200Z,10.13
2019-03-28T23:01:33.721Z,12.37
2019-03-28T23:04:02.177Z,12.03
2019-03-28T23:06:30.636Z,11.03
2019-03-28T23:08:59.112Z,11.90
2019-03-28T23:11:27.640Z,11.50
2019-03-28T23:13:56.084Z,13.00
2019-03-28T23:16:24.550Z,11.77
2019-03-28T23:18:53.050Z,13.40
2019-03-28T23:21:21.501Z,12.30
2019-03-28T23:23:49.941Z,11.93
2019-03-28T23:26:18.407Z,12.70
2019-03-28T23:28:46.859Z,13.00
2019-03-28T23:31:15.301Z,13.30
2019-03-28T23:33:43.740Z,12.90
2019-03-28T23:36:12.198Z,14.03
2019-03-28T23:38:40.645Z,13.63
2019-03-28T23:41:09.150Z,14.47
2019-03-28T23:43:37.587Z,14.77
2019-03-28T23:46:06.038Z,14.87
2019-03-28T23:48:34.545Z,14.83
2019-03-28T23:51:03.006Z,14.27
2019-03-28T23:53:31.445Z,14.90
2019-03-28T23:55:59.902Z,14.37
2019-03-28T23:58:28.345Z,15.33
